WARR/SUB METAR and TAF weather

Enter ICAO airport designator
Station Type Date Time Source
WARR METAR 2018/12/11 17:30 UTC NOAA

WARR 111730Z 17005KT 8000 FEW020 27/26 Q1008 NOSIG


Station Type Date Time Source
WARR Decoded METAR 2018/12/11 17:30 UTC NOAA

Station name not available
Dec 11, 2018 - 12:30 PM EST / 2018.12.11 1730 UTC
Wind: from the S (170 degrees) at 6 MPH (5 KT):0
Visibility: 4 mile(s):0
Sky conditions: mostly clear
Temperature: 80 F (27 C)
Dew Point: 78 F (26 C)
Relative Humidity: 94%
Pressure (altimeter): 29.77 in. Hg (1008 hPa)
ob: WARR 111730Z 17005KT 8000 FEW020 27/26 Q1008 NOSIG
cycle: 17

Station Type Date Time Source
WARR TAF 2018/12/11 18:06 UTC NOAA

TAF TAF WARR 111700Z 1118/1218 18005KT 8000 FEW020
BECMG 1119/1121 4000 HZ
BECMG 1200/1202 11010KT 9999 NSW PROB30
TEMPO 1208/1212 3000 TSRA SCT020CB


Example: see airport list